createdAt,value
2018-01-08T00:00:28.205Z,101923.89
2018-01-08T00:02:54.213Z,101918.23
2018-01-08T00:05:20.177Z,101922.93
2018-01-08T00:07:46.173Z,101921.20
2018-01-08T00:10:12.133Z,101926.80
2018-01-08T00:12:38.139Z,101923.19
2018-01-08T00:15:04.101Z,101925.72
2018-01-08T00:17:30.054Z,101924.33
2018-01-08T00:19:56.067Z,101921.77
2018-01-08T00:22:22.026Z,101928.13
2018-01-08T00:24:47.997Z,101929.72
2018-01-08T00:27:13.958Z,101930.94
2018-01-08T00:29:39.925Z,101925.70
2018-01-08T00:32:05.973Z,101919.78
2018-01-08T00:34:31.969Z,101917.80
2018-01-08T00:36:57.932Z,101927.27
2018-01-08T00:39:23.885Z,101926.56
2018-01-08T00:41:49.850Z,101920.11
2018-01-08T00:44:15.838Z,101910.09
2018-01-08T00:46:41.858Z,101906.50
2018-01-08T00:49:07.823Z,101911.72
2018-01-08T00:51:33.798Z,101906.38
2018-01-08T00:53:59.768Z,101901.88
2018-01-08T00:56:25.732Z,101907.45
2018-01-08T00:58:51.683Z,101905.35
2018-01-08T01:01:17.672Z,101901.41
2018-01-08T01:03:43.639Z,101901.69
2018-01-08T01:06:09.650Z,101900.80
2018-01-08T01:08:35.652Z,101901.94
2018-01-08T01:11:01.638Z,101902.59
2018-01-08T01:13:27.600Z,101897.81
2018-01-08T01:15:53.590Z,101896.38
2018-01-08T01:18:19.544Z,101898.57
2018-01-08T01:20:45.509Z,101893.91
2018-01-08T01:23:11.479Z,101892.45
2018-01-08T01:25:37.455Z,101897.02
2018-01-08T01:28:03.407Z,101886.38
2018-01-08T01:30:29.352Z,101883.67
2018-01-08T01:32:55.336Z,101883.64
2018-01-08T01:35:21.310Z,101888.85
2018-01-08T01:37:47.284Z,101887.64
2018-01-08T01:40:13.241Z,101887.22
2018-01-08T01:42:39.191Z,101886.31
2018-01-08T01:45:05.227Z,101886.70
2018-01-08T01:47:31.203Z,101883.02
2018-01-08T01:49:57.239Z,101886.16
2018-01-08T01:52:23.209Z,101889.16
2018-01-08T01:54:49.220Z,101892.92
2018-01-08T01:57:15.191Z,101889.62
2018-01-08T01:59:41.172Z,101891.07
2018-01-08T02:02:07.154Z,101893.20
2018-01-08T02:04:33.109Z,101891.78
2018-01-08T02:06:59.201Z,101886.63
2018-01-08T02:09:25.210Z,101888.30
2018-01-08T02:11:51.200Z,101883.55
2018-01-08T02:14:17.191Z,101880.80
2018-01-08T02:16:43.137Z,101870.11
2018-01-08T02:19:09.110Z,101863.64
2018-01-08T02:21:35.113Z,101860.52
2018-01-08T02:24:01.083Z,101846.28
2018-01-08T02:26:27.052Z,101852.16
2018-01-08T02:28:53.040Z,101855.53
2018-01-08T02:31:18.999Z,101861.36
2018-01-08T02:33:44.984Z,101855.04
2018-01-08T02:38:43.361Z,101856.80
2018-01-08T02:41:09.331Z,101858.77
2018-01-08T02:43:35.300Z,101867.61
2018-01-08T02:46:01.264Z,101862.80
2018-01-08T02:48:27.242Z,101855.12
2018-01-08T02:50:53.207Z,101861.24
2018-01-08T02:53:19.171Z,101862.12
2018-01-08T02:55:45.162Z,101861.95
2018-01-08T02:58:11.183Z,101864.34
2018-01-08T03:00:37.154Z,101864.38
2018-01-08T03:03:03.117Z,101858.45
2018-01-08T03:05:29.071Z,101859.88
2018-01-08T03:07:55.032Z,101860.91
2018-01-08T03:10:20.988Z,101856.64
2018-01-08T03:12:46.946Z,101865.88
2018-01-08T03:15:12.902Z,101870.66
2018-01-08T03:17:38.884Z,101872.47
2018-01-08T03:20:04.848Z,101861.84
2018-01-08T03:22:30.845Z,101876.84
2018-01-08T03:24:56.793Z,101871.84
2018-01-08T03:27:22.755Z,101870.94
2018-01-08T03:29:48.721Z,101864.90
2018-01-08T03:32:14.697Z,101867.75
2018-01-08T03:34:41.544Z,101871.78
2018-01-08T03:37:07.509Z,101873.06
2018-01-08T03:39:33.479Z,101870.45
2018-01-08T03:41:59.430Z,101874.20
2018-01-08T03:44:25.382Z,101879.84
2018-01-08T03:46:51.362Z,101872.75
2018-01-08T03:49:17.302Z,101871.78
2018-01-08T03:51:43.278Z,101870.25
2018-01-08T03:54:09.240Z,101867.95
2018-01-08T03:56:35.189Z,101862.50
2018-01-08T03:59:01.160Z,101863.64
2018-01-08T04:01:27.181Z,101856.13
2018-01-08T04:03:53.142Z,101862.03
2018-01-08T04:06:19.087Z,101861.11
2018-01-08T04:08:45.052Z,101861.44
2018-01-08T04:11:11.026Z,101855.56
2018-01-08T04:13:36.986Z,101857.28
2018-01-08T04:16:02.952Z,101856.75
2018-01-08T04:18:28.922Z,101857.09
2018-01-08T04:20:54.896Z,101857.56
2018-01-08T04:23:20.880Z,101860.11
2018-01-08T04:25:46.842Z,101859.15
2018-01-08T04:28:12.815Z,101854.45
2018-01-08T04:30:38.776Z,101857.33
2018-01-08T04:33:04.728Z,101858.55
2018-01-08T04:35:30.694Z,101856.01
2018-01-08T04:37:56.662Z,101859.75
2018-01-08T04:40:22.655Z,101861.02
2018-01-08T04:42:48.622Z,101856.11
2018-01-08T04:45:14.580Z,101854.42
2018-01-08T04:47:40.529Z,101858.80
2018-01-08T04:50:06.490Z,101861.78
2018-01-08T04:52:32.461Z,101860.45
2018-01-08T04:54:58.407Z,101861.13
2018-01-08T04:57:24.385Z,101860.02
2018-01-08T04:59:50.351Z,101853.84
2018-01-08T05:02:17.376Z,101855.48
2018-01-08T05:04:43.351Z,101853.69
2018-01-08T05:07:09.343Z,101852.66
2018-01-08T05:09:35.313Z,101850.02
2018-01-08T05:12:01.289Z,101849.45
2018-01-08T05:14:27.255Z,101850.11
2018-01-08T05:16:53.233Z,101853.47
2018-01-08T05:19:19.210Z,101858.80
2018-01-08T05:21:45.194Z,101857.44
2018-01-08T05:24:11.271Z,101858.52
2018-01-08T05:26:37.254Z,101865.70
2018-01-08T05:29:03.314Z,101857.61
2018-01-08T05:31:30.307Z,101863.84
2018-01-08T05:33:56.278Z,101863.98
2018-01-08T05:36:22.256Z,101861.74
2018-01-08T05:38:49.228Z,101868.89
2018-01-08T05:41:15.207Z,101865.74
2018-01-08T05:43:41.184Z,101865.13
2018-01-08T05:46:07.395Z,101864.50
2018-01-08T05:48:33.544Z,101865.54
2018-01-08T05:50:59.548Z,101865.28
2018-01-08T05:53:25.535Z,101867.14
2018-01-08T05:55:51.522Z,101876.09
2018-01-08T05:58:17.468Z,101873.58
2018-01-08T06:00:43.445Z,101870.69
2018-01-08T06:03:09.414Z,101874.30
2018-01-08T06:05:35.374Z,101864.35
2018-01-08T06:08:01.385Z,101865.16
2018-01-08T06:10:27.360Z,101866.79
2018-01-08T06:12:53.354Z,101856.97
2018-01-08T06:15:19.321Z,101855.16
2018-01-08T06:17:45.296Z,101859.12
2018-01-08T06:20:11.263Z,101867.78
2018-01-08T06:22:37.267Z,101856.97
2018-01-08T06:25:03.234Z,101851.59
2018-01-08T06:27:29.220Z,101852.31
2018-01-08T06:29:55.170Z,101855.21
2018-01-08T06:32:21.180Z,101853.47
2018-01-08T06:34:47.178Z,101849.64
2018-01-08T06:37:13.187Z,101862.39
2018-01-08T06:39:39.146Z,101858.36
2018-01-08T06:42:05.132Z,101867.16
2018-01-08T06:44:31.133Z,101857.89
2018-01-08T06:46:57.372Z,101860.37
2018-01-08T06:49:23.388Z,101852.86
2018-01-08T06:51:49.335Z,101855.73
2018-01-08T06:54:20.672Z,101857.59
2018-01-08T06:56:46.691Z,101858.84
2018-01-08T06:59:12.655Z,101859.10
2018-01-08T07:01:38.613Z,101859.35
2018-01-08T07:04:04.597Z,101862.53
2018-01-08T07:06:30.543Z,101865.78
2018-01-08T07:08:56.886Z,101868.04
2018-01-08T07:11:23.228Z,101858.13
2018-01-08T07:13:49.222Z,101862.22
2018-01-08T07:16:15.204Z,101862.27
2018-01-08T07:18:41.158Z,101869.41
2018-01-08T07:21:07.109Z,101865.11
2018-01-08T07:23:33.109Z,101868.34
2018-01-08T07:25:59.072Z,101872.11
2018-01-08T07:28:25.054Z,101867.97
2018-01-08T07:30:51.018Z,101866.30
2018-01-08T07:33:16.992Z,101871.20
2018-01-08T07:35:42.951Z,101865.56
2018-01-08T07:38:08.909Z,101858.69
2018-01-08T07:40:34.856Z,101861.50
2018-01-08T07:43:00.815Z,101860.93
2018-01-08T07:45:26.818Z,101870.28
2018-01-08T07:47:53.838Z,101865.40
2018-01-08T07:50:19.800Z,101865.54
2018-01-08T07:52:45.758Z,101884.89
2018-01-08T07:55:11.745Z,101876.38
2018-01-08T07:57:37.713Z,101867.67
2018-01-08T08:00:03.703Z,101871.42
2018-01-08T08:02:29.671Z,101870.39
2018-01-08T08:04:55.653Z,101867.63
2018-01-08T08:07:21.624Z,101870.81
2018-01-08T08:09:47.610Z,101866.22
2018-01-08T08:12:13.596Z,101864.67
2018-01-08T08:14:39.562Z,101869.55
2018-01-08T08:17:05.566Z,101871.63
2018-01-08T08:19:31.542Z,101874.84
2018-01-08T08:21:57.522Z,101878.48
2018-01-08T08:24:23.553Z,101882.70
2018-01-08T08:26:49.540Z,101882.93
2018-01-08T08:29:15.559Z,101890.25
2018-01-08T08:31:41.530Z,101885.56
2018-01-08T08:34:07.506Z,101891.27
2018-01-08T08:36:33.489Z,101878.30
2018-01-08T08:38:59.480Z,101872.82
2018-01-08T08:41:25.509Z,101869.34
2018-01-08T08:43:51.544Z,101870.46
2018-01-08T08:46:17.509Z,101864.15
2018-01-08T08:48:43.575Z,101871.45
2018-01-08T08:51:11.148Z,101861.28
2018-01-08T08:53:37.175Z,101879.93
2018-01-08T08:56:03.187Z,101870.75
2018-01-08T08:58:29.137Z,101866.27
2018-01-08T09:00:55.102Z,101868.58
2018-01-08T09:03:21.081Z,101865.03
2018-01-08T09:05:47.050Z,101871.08
2018-01-08T09:08:13.007Z,101869.91
2018-01-08T09:10:39.010Z,101873.78
2018-01-08T09:13:04.988Z,101870.25
2018-01-08T09:15:30.998Z,101863.53
2018-01-08T09:17:56.970Z,101865.99
2018-01-08T09:20:22.960Z,101863.97
2018-01-08T09:22:48.928Z,101865.99
2018-01-08T09:25:14.900Z,101869.18
2018-01-08T09:27:40.876Z,101875.77
2018-01-08T09:30:06.846Z,101875.30
2018-01-08T09:32:32.816Z,101870.66
2018-01-08T09:34:58.795Z,101870.25
2018-01-08T09:37:24.807Z,101864.83
2018-01-08T09:39:50.923Z,101865.39
2018-01-08T09:42:16.890Z,101862.12
2018-01-08T09:44:42.879Z,101858.58
2018-01-08T09:47:08.869Z,101856.97
2018-01-08T09:49:34.888Z,101854.72
2018-01-08T09:52:00.839Z,101860.98
2018-01-08T09:54:26.817Z,101854.55
2018-01-08T09:56:52.790Z,101863.27
2018-01-08T09:59:18.746Z,101863.52
2018-01-08T10:01:44.718Z,101862.16
2018-01-08T10:04:10.678Z,101857.70
2018-01-08T10:06:36.658Z,101852.19
2018-01-08T10:09:02.625Z,101847.90
2018-01-08T10:11:28.638Z,101846.67
2018-01-08T10:13:54.607Z,101847.66
2018-01-08T10:16:20.594Z,101849.37
2018-01-08T10:18:46.583Z,101845.09
2018-01-08T10:21:12.543Z,101837.84
2018-01-08T10:23:38.564Z,101838.51
2018-01-08T10:26:04.522Z,101831.11
2018-01-08T10:28:30.509Z,101823.87
2018-01-08T10:30:56.489Z,101821.70
2018-01-08T10:33:22.567Z,101824.38
2018-01-08T10:35:48.546Z,101804.64
2018-01-08T10:38:14.525Z,101806.20
2018-01-08T10:40:40.483Z,101800.64
2018-01-08T10:43:06.466Z,101801.75
2018-01-08T10:45:32.512Z,101791.59
2018-01-08T10:47:58.514Z,101799.19
2018-01-08T10:50:24.493Z,101796.74
2018-01-08T10:52:50.470Z,101793.06
2018-01-08T10:55:16.468Z,101788.75
2018-01-08T10:57:42.473Z,101781.06
2018-01-08T11:00:08.430Z,101780.06
2018-01-08T11:02:34.417Z,101779.53
2018-01-08T11:05:00.437Z,101778.55
2018-01-08T11:07:26.403Z,101775.94
2018-01-08T11:09:52.375Z,101769.02
2018-01-08T11:12:18.338Z,101773.18
2018-01-08T11:14:44.323Z,101771.39
2018-01-08T11:17:10.297Z,101764.61
2018-01-08T11:19:36.260Z,101752.05
2018-01-08T11:22:02.235Z,101761.80
2018-01-08T11:24:28.293Z,101758.27
2018-01-08T11:26:54.310Z,101748.84
2018-01-08T11:29:20.316Z,101743.97
2018-01-08T11:31:46.291Z,101743.72
2018-01-08T11:34:12.287Z,101742.59
2018-01-08T11:36:38.274Z,101741.53
2018-01-08T11:39:04.227Z,101730.44
2018-01-08T11:41:30.185Z,101726.55
2018-01-08T11:43:56.151Z,101722.47
2018-01-08T11:46:22.130Z,101723.68
2018-01-08T11:48:48.103Z,101721.52
2018-01-08T11:51:14.105Z,101715.52
2018-01-08T11:53:40.068Z,101706.22
2018-01-08T11:56:06.045Z,101705.44
2018-01-08T11:58:32.016Z,101711.36
2018-01-08T12:00:57.983Z,101710.69
2018-01-08T12:03:23.959Z,101699.14
2018-01-08T12:05:49.983Z,101700.84
2018-01-08T12:08:15.960Z,101705.29
2018-01-08T12:10:41.946Z,101712.23
2018-01-08T12:13:07.927Z,101701.97
2018-01-08T12:15:33.954Z,101699.97
2018-01-08T12:17:59.946Z,101695.48
2018-01-08T12:20:25.921Z,101694.53
2018-01-08T12:22:51.906Z,101693.77
2018-01-08T12:25:17.878Z,101685.39
2018-01-08T12:27:43.854Z,101683.39
2018-01-08T12:30:09.819Z,101683.58
2018-01-08T12:32:35.810Z,101682.53
2018-01-08T12:35:01.776Z,101676.27
2018-01-08T12:37:27.735Z,101678.19
2018-01-08T12:39:53.729Z,101675.50
2018-01-08T12:42:19.696Z,101674.95
2018-01-08T12:44:45.737Z,101675.70
2018-01-08T12:47:11.724Z,101667.62
2018-01-08T12:49:37.670Z,101666.52
2018-01-08T12:52:03.682Z,101664.41
2018-01-08T12:54:29.630Z,101654.86
2018-01-08T12:56:55.684Z,101660.03
2018-01-08T12:59:21.628Z,101652.41
2018-01-08T13:01:47.587Z,101663.20
2018-01-08T13:04:13.551Z,101655.91
2018-01-08T13:06:39.532Z,101647.41
2018-01-08T13:09:05.491Z,101650.54
2018-01-08T13:11:31.466Z,101642.66
2018-01-08T13:13:57.425Z,101640.62
2018-01-08T13:16:23.453Z,101642.98
2018-01-08T13:18:49.436Z,101639.03
2018-01-08T13:21:15.416Z,101641.92
2018-01-08T13:23:41.390Z,101634.98
2018-01-08T13:26:07.358Z,101628.95
2018-01-08T13:28:34.783Z,101628.05
2018-01-08T13:31:01.135Z,101628.52
2018-01-08T13:35:59.506Z,101624.08
2018-01-08T13:38:26.236Z,101624.13
2018-01-08T13:40:52.547Z,101618.95
2018-01-08T13:48:22.829Z,101619.33
2018-01-08T13:50:48.837Z,101620.11
2018-01-08T13:53:14.832Z,101615.31
2018-01-08T13:55:40.789Z,101602.70
2018-01-08T13:58:08.625Z,101604.11
2018-01-08T14:00:36.711Z,101605.39
2018-01-08T14:03:03.381Z,101609.70
2018-01-08T14:05:29.411Z,101604.34
2018-01-08T14:07:56.702Z,101611.42
2018-01-08T14:10:22.742Z,101596.30
2018-01-08T14:12:50.966Z,101589.34
2018-01-08T14:15:17.078Z,101590.82
2018-01-08T14:17:43.062Z,101584.50
2018-01-08T14:20:09.738Z,101592.64
2018-01-08T14:22:38.369Z,101583.52
2018-01-08T14:25:04.415Z,101580.68
2018-01-08T14:27:30.394Z,101584.67
2018-01-08T14:29:56.361Z,101578.93
2018-01-08T14:32:26.730Z,101572.93
2018-01-08T14:34:53.556Z,101575.67
2018-01-08T14:37:19.540Z,101577.97
2018-01-08T14:39:45.518Z,101571.75
2018-01-08T14:42:11.501Z,101578.80
2018-01-08T14:44:37.489Z,101571.37
2018-01-08T14:47:03.439Z,101575.98
2018-01-08T14:49:29.431Z,101579.39
2018-01-08T14:51:55.451Z,101574.05
2018-01-08T14:54:21.464Z,101579.17
2018-01-08T14:56:47.442Z,101580.05
2018-01-08T14:59:13.415Z,101585.00
2018-01-08T15:01:39.380Z,101585.81
2018-01-08T15:04:05.363Z,101577.17
2018-01-08T15:06:31.367Z,101579.22
2018-01-08T15:08:57.383Z,101575.02
2018-01-08T15:11:23.342Z,101575.14
2018-01-08T15:13:49.308Z,101573.05
2018-01-08T15:16:15.304Z,101570.41
2018-01-08T15:18:41.272Z,101573.91
2018-01-08T15:21:07.394Z,101578.97
2018-01-08T15:23:33.394Z,101572.47
2018-01-08T15:25:59.359Z,101575.30
2018-01-08T15:28:25.352Z,101573.48
2018-01-08T15:30:51.338Z,101567.50
2018-01-08T15:33:17.327Z,101574.06
2018-01-08T15:35:43.309Z,101569.77
2018-01-08T15:38:09.260Z,101570.45
2018-01-08T15:40:35.221Z,101568.36
2018-01-08T15:43:01.185Z,101566.78
2018-01-08T15:45:27.158Z,101560.72
2018-01-08T15:47:53.114Z,101557.80
2018-01-08T15:50:19.094Z,101556.93
2018-01-08T15:52:45.061Z,101555.84
2018-01-08T15:55:11.047Z,101558.43
2018-01-08T15:57:37.413Z,101555.70
2018-01-08T16:00:03.412Z,101548.55
2018-01-08T16:02:29.376Z,101558.58
2018-01-08T16:04:55.348Z,101564.19
2018-01-08T16:07:21.357Z,101560.49
2018-01-08T16:09:47.430Z,101563.53
2018-01-08T16:12:13.397Z,101553.84
2018-01-08T16:14:39.386Z,101554.66
2018-01-08T16:17:05.344Z,101556.47
2018-01-08T16:19:31.294Z,101550.08
2018-01-08T16:21:57.270Z,101550.92
2018-01-08T16:24:23.253Z,101547.60
2018-01-08T16:26:49.275Z,101556.48
2018-01-08T16:29:15.272Z,101539.67
2018-01-08T16:31:41.318Z,101544.66
2018-01-08T16:34:07.315Z,101541.14
2018-01-08T16:36:33.323Z,101554.77
2018-01-08T16:38:59.347Z,101549.75
2018-01-08T16:41:25.407Z,101548.29
2018-01-08T16:43:51.373Z,101544.08
2018-01-08T16:46:17.335Z,101537.08
2018-01-08T16:48:43.346Z,101537.71
2018-01-08T16:51:09.307Z,101532.26
2018-01-08T16:53:35.296Z,101532.06
2018-01-08T16:56:01.261Z,101531.09
2018-01-08T16:58:27.227Z,101529.30
2018-01-08T17:00:53.196Z,101526.91
2018-01-08T17:03:19.194Z,101536.09
2018-01-08T17:05:45.233Z,101529.64
2018-01-08T17:08:11.200Z,101529.61
2018-01-08T17:10:38.251Z,101520.34
2018-01-08T17:13:04.391Z,101524.21
2018-01-08T17:15:30.377Z,101520.54
2018-01-08T17:17:56.412Z,101518.09
2018-01-08T17:20:22.377Z,101514.52
2018-01-08T17:22:48.479Z,101509.45
2018-01-08T17:25:14.469Z,101504.15
2018-01-08T17:27:40.473Z,101505.87
2018-01-08T17:30:06.456Z,101501.67
2018-01-08T17:32:32.442Z,101496.40
2018-01-08T17:34:58.438Z,101496.18
2018-01-08T17:37:24.391Z,101496.57
2018-01-08T17:39:50.405Z,101493.52
2018-01-08T17:42:16.372Z,101496.66
2018-01-08T17:44:42.352Z,101498.69
2018-01-08T17:47:08.404Z,101494.56
2018-01-08T17:49:34.408Z,101487.77
2018-01-08T17:52:00.394Z,101490.05
2018-01-08T17:54:26.365Z,101490.20
2018-01-08T17:56:52.373Z,101485.21
2018-01-08T17:59:18.345Z,101487.22
2018-01-08T18:01:44.339Z,101481.11
2018-01-08T18:04:10.343Z,101485.70
2018-01-08T18:06:36.299Z,101486.83
2018-01-08T18:09:02.330Z,101487.80
2018-01-08T18:11:28.315Z,101482.70
2018-01-08T18:13:54.714Z,101479.77
2018-01-08T18:16:20.754Z,101488.53
2018-01-08T18:18:46.733Z,101491.76
2018-01-08T18:21:12.705Z,101485.11
2018-01-08T18:23:38.718Z,101496.52
2018-01-08T18:26:04.685Z,101485.59
2018-01-08T18:28:30.659Z,101486.45
2018-01-08T18:30:56.630Z,101484.45
2018-01-08T18:33:22.625Z,101484.05
2018-01-08T18:35:48.667Z,101478.64
2018-01-08T18:38:14.602Z,101477.25
2018-01-08T18:40:40.572Z,101471.23
2018-01-08T18:43:06.536Z,101469.06
2018-01-08T18:45:32.526Z,101468.91
2018-01-08T18:47:58.483Z,101471.78
2018-01-08T18:50:24.485Z,101468.20
2018-01-08T18:52:50.462Z,101469.14
2018-01-08T18:55:16.463Z,101467.83
2018-01-08T18:57:42.432Z,101468.73
2018-01-08T19:00:08.450Z,101464.86
2018-01-08T19:02:34.438Z,101455.21
2018-01-08T19:05:01.833Z,101449.36
2018-01-08T19:07:28.762Z,101452.53
2018-01-08T19:09:56.254Z,101453.11
2018-01-08T19:12:23.449Z,101450.80
2018-01-08T19:14:49.412Z,101445.39
2018-01-08T19:17:16.815Z,101448.87
2018-01-08T19:19:42.798Z,101443.20
2018-01-08T19:22:08.769Z,101435.34
2018-01-08T19:24:35.765Z,101424.80
2018-01-08T19:27:02.343Z,101424.14
2018-01-08T19:29:28.465Z,101425.58
2018-01-08T19:31:54.427Z,101423.83
2018-01-08T19:34:20.480Z,101421.20
2018-01-08T19:36:46.461Z,101425.53
2018-01-08T19:39:12.464Z,101419.63
2018-01-08T19:41:42.274Z,101417.18
2018-01-08T19:44:11.455Z,101422.38
2018-01-08T19:46:38.249Z,101417.39
2018-01-08T19:49:04.309Z,101414.84
2018-01-08T19:51:30.262Z,101409.23
2018-01-08T19:53:56.888Z,101404.36
2018-01-08T19:56:22.873Z,101401.85
2018-01-08T19:58:49.286Z,101404.34
2018-01-08T20:01:16.511Z,101401.44
2018-01-08T20:03:42.595Z,101400.95
2018-01-08T20:06:08.743Z,101402.33
2018-01-08T20:08:38.380Z,101402.33
2018-01-08T20:11:04.542Z,101404.37
2018-01-08T20:13:31.141Z,101411.64
2018-01-08T20:15:57.626Z,101406.16
2018-01-08T20:18:23.643Z,101400.09
2018-01-08T20:20:49.625Z,101399.91
2018-01-08T20:23:16.802Z,101399.27
2018-01-08T20:25:45.139Z,101390.67
2018-01-08T20:28:11.354Z,101384.33
2018-01-08T20:30:39.920Z,101386.64
2018-01-08T20:33:06.018Z,101380.59
2018-01-08T20:35:33.325Z,101384.39
2018-01-08T20:38:00.991Z,101379.45
2018-01-08T20:40:27.997Z,101379.82
2018-01-08T20:42:54.238Z,101382.40
2018-01-08T20:45:20.834Z,101385.80
2018-01-08T20:47:48.078Z,101380.77
2018-01-08T20:50:14.644Z,101383.00
2018-01-08T20:52:40.732Z,101382.91
2018-01-08T20:55:07.234Z,101382.77
2018-01-08T20:57:33.479Z,101375.22
2018-01-08T20:59:59.659Z,101366.38
2018-01-08T21:02:25.861Z,101363.38
2018-01-08T21:04:53.554Z,101356.34
2018-01-08T21:07:19.611Z,101351.56
2018-01-08T21:09:45.732Z,101355.45
2018-01-08T21:12:11.716Z,101357.58
2018-01-08T21:14:37.682Z,101357.02
2018-01-08T21:17:09.314Z,101363.00
2018-01-08T21:19:35.307Z,101366.19
2018-01-08T21:22:01.272Z,101371.00
2018-01-08T21:24:27.270Z,101355.55
2018-01-08T21:26:53.796Z,101358.88
2018-01-08T21:29:20.110Z,101352.52
2018-01-08T21:31:46.860Z,101346.83
2018-01-08T21:34:13.143Z,101351.77
2018-01-08T21:36:39.565Z,101344.67
2018-01-08T21:39:06.230Z,101336.89
2018-01-08T21:41:32.953Z,101332.92
2018-01-08T21:43:59.265Z,101328.09
2018-01-08T21:46:25.510Z,101320.07
2018-01-08T21:48:55.035Z,101318.77
2018-01-08T21:51:21.818Z,101312.03
2018-01-08T21:53:55.134Z,101307.30
2018-01-08T21:58:53.034Z,101300.12
2018-01-08T22:01:19.115Z,101293.16
2018-01-08T22:03:45.122Z,101286.34
2018-01-08T22:06:11.335Z,101289.69
2018-01-08T22:08:37.587Z,101279.41
2018-01-08T22:11:03.556Z,101276.75
2018-01-08T22:13:29.619Z,101268.33
2018-01-08T22:15:55.909Z,101261.59
2018-01-08T22:18:21.925Z,101255.45
2018-01-08T22:20:47.898Z,101251.69
2018-01-08T22:23:13.851Z,101246.00
2018-01-08T22:25:39.853Z,101248.38
2018-01-08T22:28:05.864Z,101245.16
2018-01-08T22:30:31.837Z,101248.09
2018-01-08T22:32:57.821Z,101242.38
2018-01-08T22:42:58.441Z,101222.49
2018-01-08T22:45:27.491Z,101221.10
2018-01-08T22:47:53.461Z,101215.61
2018-01-08T22:50:21.680Z,101215.48
2018-01-08T22:52:47.722Z,101204.22
2018-01-08T22:55:13.712Z,101199.77
2018-01-08T22:57:39.806Z,101195.05
2018-01-08T23:00:12.206Z,101190.27
2018-01-08T23:02:38.191Z,101184.23
2018-01-08T23:05:04.158Z,101181.63
2018-01-08T23:07:30.147Z,101184.07
2018-01-08T23:09:56.132Z,101185.59
2018-01-08T23:12:22.131Z,101181.02
2018-01-08T23:14:48.105Z,101174.61
2018-01-08T23:19:45.196Z,101175.78
2018-01-08T23:22:11.203Z,101164.92
2018-01-08T23:24:37.165Z,101158.37
2018-01-08T23:27:03.195Z,101152.88
2018-01-08T23:32:01.283Z,101143.09
2018-01-08T23:34:27.321Z,101146.35
2018-01-08T23:36:53.323Z,101140.86
2018-01-08T23:39:19.337Z,101141.70
2018-01-08T23:41:45.311Z,101136.95
2018-01-08T23:44:11.276Z,101141.44
2018-01-08T23:46:37.257Z,101138.80
2018-01-08T23:49:03.228Z,101130.39
2018-01-08T23:51:29.242Z,101125.44
2018-01-08T23:53:55.297Z,101126.06
2018-01-08T23:56:21.277Z,101129.48
2018-01-08T23:58:47.239Z,101115.78
